sensor_id;sensor_type;location;lat;lon;timestamp;temperature;humidity
47521;DHT22;32291;52.010;4.446;2022-07-01T00:01:01;13.70;99.90
47521;DHT22;32291;52.010;4.446;2022-07-01T00:02:04;13.70;99.90
47521;DHT22;32291;52.010;4.446;2022-07-01T00:03:07;13.40;99.90
47521;DHT22;32291;52.010;4.446;2022-07-01T00:04:10;13.70;99.90
47521;DHT22;32291;52.010;4.446;2022-07-01T00:05:13;14.20;99.90
47521;DHT22;32291;52.010;4.446;2022-07-01T00:06:20;13.70;99.90
47521;DHT22;32291;52.010;4.446;2022-07-01T00:07:23;13.70;99.90
47521;DHT22;32291;52.010;4.446;2022-07-01T00:08:26;13.70;99.90
47521;DHT22;32291;52.010;4.446;2022-07-01T00:09:28;13.70;99.90
47521;DHT22;32291;52.010;4.446;2022-07-01T00:10:30;13.70;99.90
47521;DHT22;32291;52.010;4.446;2022-07-01T00:11:34;13.70;99.90
47521;DHT22;32291;52.010;4.446;2022-07-01T00:12:37;13.60;99.90
47521;DHT22;32291;52.010;4.446;2022-07-01T00:13:40;13.60;99.90
47521;DHT22;32291;52.010;4.446;2022-07-01T00:14:45;13.60;99.90
47521;DHT22;32291;52.010;4.446;2022-07-01T00:15:47;13.60;99.90
47521;DHT22;32291;52.010;4.446;2022-07-01T00:16:51;13.60;99.90
47521;DHT22;32291;52.010;4.446;2022-07-01T00:17:54;12.60;99.90
47521;DHT22;32291;52.010;4.446;2022-07-01T00:18:57;13.60;99.90
47521;DHT22;32291;52.010;4.446;2022-07-01T00:20:00;13.60;99.90
47521;DHT22;32291;52.010;4.446;2022-07-01T00:21:04;13.60;99.90
47521;DHT22;32291;52.010;4.446;2022-07-01T00:22:08;13.50;99.90
47521;DHT22;32291;52.010;4.446;2022-07-01T00:23:11;13.60;99.90
47521;DHT22;32291;52.010;4.446;2022-07-01T00:24:15;13.50;99.90
47521;DHT22;32291;52.010;4.446;2022-07-01T00:25:19;13.50;99.90
47521;DHT22;32291;52.010;4.446;2022-07-01T00:26:22;13.50;99.90
47521;DHT22;32291;52.010;4.446;2022-07-01T00:27:26;13.50;99.90
47521;DHT22;32291;52.010;4.446;2022-07-01T00:28:31;13.50;99.90
47521;DHT22;32291;52.010;4.446;2022-07-01T00:29:34;13.50;99.90
47521;DHT22;32291;52.010;4.446;2022-07-01T00:30:37;13.40;99.90
47521;DHT22;32291;52.010;4.446;2022-07-01T00:31:40;13.50;99.90
47521;DHT22;32291;52.010;4.446;2022-07-01T00:32:43;13.40;99.90
47521;DHT22;32291;52.010;4.446;2022-07-01T00:33:47;13.40;99.90
47521;DHT22;32291;52.010;4.446;2022-07-01T00:34:50;13.40;99.90
47521;DHT22;32291;52.010;4.446;2022-07-01T00:35:53;13.40;99.90
47521;DHT22;32291;52.010;4.446;2022-07-01T00:36:56;13.40;99.90
47521;DHT22;32291;52.010;4.446;2022-07-01T00:37:59;13.30;99.90
47521;DHT22;32291;52.010;4.446;2022-07-01T00:39:02;13.40;99.90
47521;DHT22;32291;52.010;4.446;2022-07-01T00:40:05;13.40;99.90
47521;DHT22;32291;52.010;4.446;2022-07-01T00:41:09;13.40;99.90
47521;DHT22;32291;52.010;4.446;2022-07-01T00:42:12;13.40;99.90
47521;DHT22;32291;52.010;4.446;2022-07-01T00:43:14;13.40;99.90
47521;DHT22;32291;52.010;4.446;2022-07-01T00:44:18;13.40;99.90
47521;DHT22;32291;52.010;4.446;2022-07-01T00:45:21;13.40;99.90
47521;DHT22;32291;52.010;4.446;2022-07-01T00:46:25;13.30;99.90
47521;DHT22;32291;52.010;4.446;2022-07-01T00:47:27;13.40;99.90
47521;DHT22;32291;52.010;4.446;2022-07-01T00:48:32;13.40;99.90
47521;DHT22;32291;52.010;4.446;2022-07-01T00:49:37;13.40;99.90
47521;DHT22;32291;52.010;4.446;2022-07-01T00:50:41;13.40;99.90
47521;DHT22;32291;52.010;4.446;2022-07-01T00:51:46;13.50;99.90
47521;DHT22;32291;52.010;4.446;2022-07-01T00:52:50;12.70;99.90
47521;DHT22;32291;52.010;4.446;2022-07-01T00:53:53;13.50;99.90
47521;DHT22;32291;52.010;4.446;2022-07-01T00:54:59;13.60;99.90
47521;DHT22;32291;52.010;4.446;2022-07-01T00:56:05;13.50;99.90
47521;DHT22;32291;52.010;4.446;2022-07-01T00:57:10;13.50;99.90
47521;DHT22;32291;52.010;4.446;2022-07-01T00:58:13;13.50;99.90
47521;DHT22;32291;52.010;4.446;2022-07-01T00:59:16;13.50;99.90
47521;DHT22;32291;52.010;4.446;2022-07-01T01:00:21;13.50;99.90
47521;DHT22;32291;52.010;4.446;2022-07-01T01:01:25;13.60;99.90
47521;DHT22;32291;52.010;4.446;2022-07-01T01:02:28;13.50;99.90
47521;DHT22;32291;52.010;4.446;2022-07-01T01:03:31;13.50;99.90
47521;DHT22;32291;52.010;4.446;2022-07-01T01:04:35;13.50;99.90
47521;DHT22;32291;52.010;4.446;2022-07-01T01:05:38;13.50;99.90
47521;DHT22;32291;52.010;4.446;2022-07-01T01:06:43;13.50;99.90
47521;DHT22;32291;52.010;4.446;2022-07-01T01:07:49;13.50;99.90
47521;DHT22;32291;52.010;4.446;2022-07-01T01:08:54;13.50;99.90
47521;DHT22;32291;52.010;4.446;2022-07-01T01:09:59;13.50;99.90
47521;DHT22;32291;52.010;4.446;2022-07-01T01:11:06;13.50;99.90
47521;DHT22;32291;52.010;4.446;2022-07-01T01:12:10;13.40;99.90
47521;DHT22;32291;52.010;4.446;2022-07-01T01:13:13;12.30;99.90
47521;DHT22;32291;52.010;4.446;2022-07-01T01:14:16;13.40;99.90
47521;DHT22;32291;52.010;4.446;2022-07-01T01:15:19;13.40;99.90
47521;DHT22;32291;52.010;4.446;2022-07-01T01:16:25;14.50;99.90
47521;DHT22;32291;52.010;4.446;2022-07-01T01:17:29;13.40;99.90
47521;DHT22;32291;52.010;4.446;2022-07-01T01:18:31;13.40;99.90
47521;DHT22;32291;52.010;4.446;2022-07-01T01:19:35;13.40;99.90
47521;DHT22;32291;52.010;4.446;2022-07-01T01:20:41;13.40;99.90
47521;DHT22;32291;52.010;4.446;2022-07-01T01:21:43;13.40;99.90
47521;DHT22;32291;52.010;4.446;2022-07-01T01:22:47;13.40;99.90
47521;DHT22;32291;52.010;4.446;2022-07-01T01:23:52;13.40;99.90
47521;DHT22;32291;52.010;4.446;2022-07-01T01:24:57;13.40;99.90
47521;DHT22;32291;52.010;4.446;2022-07-01T01:26:00;13.90;99.90
47521;DHT22;32291;52.010;4.446;2022-07-01T01:27:04;13.40;99.90
47521;DHT22;32291;52.010;4.446;2022-07-01T01:28:10;13.40;99.90
47521;DHT22;32291;52.010;4.446;2022-07-01T01:29:14;13.40;99.90
47521;DHT22;32291;52.010;4.446;2022-07-01T01:30:20;13.40;99.90
47521;DHT22;32291;52.010;4.446;2022-07-01T01:31:30;13.40;99.90
47521;DHT22;32291;52.010;4.446;2022-07-01T01:32:38;13.40;99.90
47521;DHT22;32291;52.010;4.446;2022-07-01T01:33:44;13.40;99.90
47521;DHT22;32291;52.010;4.446;2022-07-01T01:34:47;13.40;99.90
47521;DHT22;32291;52.010;4.446;2022-07-01T01:35:50;13.40;99.90
47521;DHT22;32291;52.010;4.446;2022-07-01T01:36:55;13.40;99.90
47521;DHT22;32291;52.010;4.446;2022-07-01T01:37:58;13.30;99.90
47521;DHT22;32291;52.010;4.446;2022-07-01T01:39:00;13.30;99.90
47521;DHT22;32291;52.010;4.446;2022-07-01T01:40:13;13.30;99.90
47521;DHT22;32291;52.010;4.446;2022-07-01T01:41:16;13.30;99.90
47521;DHT22;32291;52.010;4.446;2022-07-01T01:42:19;13.40;99.90
47521;DHT22;32291;52.010;4.446;2022-07-01T01:43:22;13.40;99.90
47521;DHT22;32291;52.010;4.446;2022-07-01T01:44:24;13.90;99.90
47521;DHT22;32291;52.010;4.446;2022-07-01T01:45:28;13.30;99.90
47521;DHT22;32291;52.010;4.446;2022-07-01T01:46:31;13.30;99.90
47521;DHT22;32291;52.010;4.446;2022-07-01T01:47:33;13.30;99.90
47521;DHT22;32291;52.010;4.446;2022-07-01T01:48:36;13.40;99.90
47521;DHT22;32291;52.010;4.446;2022-07-01T01:49:37;13.40;99.90
47521;DHT22;32291;52.010;4.446;2022-07-01T01:50:40;13.40;99.90
47521;DHT22;32291;52.010;4.446;2022-07-01T01:51:44;13.40;99.90
47521;DHT22;32291;52.010;4.446;2022-07-01T01:52:46;13.50;99.90
47521;DHT22;32291;52.010;4.446;2022-07-01T01:53:49;13.50;99.90
47521;DHT22;32291;52.010;4.446;2022-07-01T01:54:52;13.50;99.90
47521;DHT22;32291;52.010;4.446;2022-07-01T01:55:54;13.50;99.90
47521;DHT22;32291;52.010;4.446;2022-07-01T01:56:58;13.50;99.90
47521;DHT22;32291;52.010;4.446;2022-07-01T01:58:01;13.50;99.90
47521;DHT22;32291;52.010;4.446;2022-07-01T01:59:03;13.60;99.90
47521;DHT22;32291;52.010;4.446;2022-07-01T02:00:06;13.60;99.90
47521;DHT22;32291;52.010;4.446;2022-07-01T02:01:11;13.60;99.90
47521;DHT22;32291;52.010;4.446;2022-07-01T02:02:16;13.60;99.90
47521;DHT22;32291;52.010;4.446;2022-07-01T02:03:22;13.60;99.90
47521;DHT22;32291;52.010;4.446;2022-07-01T02:04:24;13.70;99.90
47521;DHT22;32291;52.010;4.446;2022-07-01T02:05:27;13.70;99.90
47521;DHT22;32291;52.010;4.446;2022-07-01T02:06:29;13.70;99.90
47521;DHT22;32291;52.010;4.446;2022-07-01T02:07:31;13.70;99.90
47521;DHT22;32291;52.010;4.446;2022-07-01T02:08:34;13.70;99.90
47521;DHT22;32291;52.010;4.446;2022-07-01T02:09:39;13.70;99.90
47521;DHT22;32291;52.010;4.446;2022-07-01T02:10:41;13.70;99.90
47521;DHT22;32291;52.010;4.446;2022-07-01T02:11:44;13.70;99.90
47521;DHT22;32291;52.010;4.446;2022-07-01T02:12:50;13.70;99.90
47521;DHT22;32291;52.010;4.446;2022-07-01T02:13:54;13.70;99.90
47521;DHT22;32291;52.010;4.446;2022-07-01T02:14:56;13.70;99.90
47521;DHT22;32291;52.010;4.446;2022-07-01T02:15:59;13.70;99.90
47521;DHT22;32291;52.010;4.446;2022-07-01T02:17:04;13.70;99.90
47521;DHT22;32291;52.010;4.446;2022-07-01T02:18:06;13.80;99.90
47521;DHT22;32291;52.010;4.446;2022-07-01T02:19:11;13.80;99.90
47521;DHT22;32291;52.010;4.446;2022-07-01T02:20:17;13.70;99.90
47521;DHT22;32291;52.010;4.446;2022-07-01T02:21:21;13.70;99.90
47521;DHT22;32291;52.010;4.446;2022-07-01T02:22:27;13.70;99.90
47521;DHT22;32291;52.010;4.446;2022-07-01T02:23:30;13.70;99.90
47521;DHT22;32291;52.010;4.446;2022-07-01T02:24:33;13.60;99.90
47521;DHT22;32291;52.010;4.446;2022-07-01T02:25:36;13.60;99.90
47521;DHT22;32291;52.010;4.446;2022-07-01T02:26:38;13.50;99.90
47521;DHT22;32291;52.010;4.446;2022-07-01T02:27:42;13.60;99.90
47521;DHT22;32291;52.010;4.446;2022-07-01T02:28:47;13.60;99.90
47521;DHT22;32291;52.010;4.446;2022-07-01T02:29:50;13.30;99.90
47521;DHT22;32291;52.010;4.446;2022-07-01T02:30:56;13.60;99.90
47521;DHT22;32291;52.010;4.446;2022-07-01T02:31:58;13.50;99.90
47521;DHT22;32291;52.010;4.446;2022-07-01T02:33:01;12.60;99.90
47521;DHT22;32291;52.010;4.446;2022-07-01T02:34:06;13.00;99.90
47521;DHT22;32291;52.010;4.446;2022-07-01T02:35:09;13.50;99.90
47521;DHT22;32291;52.010;4.446;2022-07-01T02:36:12;13.40;99.90
47521;DHT22;32291;52.010;4.446;2022-07-01T02:37:15;13.50;99.90
47521;DHT22;32291;52.010;4.446;2022-07-01T02:38:17;13.00;99.90
47521;DHT22;32291;52.010;4.446;2022-07-01T02:39:19;13.40;99.90
47521;DHT22;32291;52.010;4.446;2022-07-01T02:40:22;13.40;99.90
47521;DHT22;32291;52.010;4.446;2022-07-01T02:41:29;13.40;99.90
47521;DHT22;32291;52.010;4.446;2022-07-01T02:42:32;13.40;99.90
47521;DHT22;32291;52.010;4.446;2022-07-01T02:43:40;13.40;99.90
47521;DHT22;32291;52.010;4.446;2022-07-01T02:44:42;13.40;99.90
47521;DHT22;32291;52.010;4.446;2022-07-01T02:45:47;13.30;99.90
47521;DHT22;32291;52.010;4.446;2022-07-01T02:46:50;13.30;99.90
47521;DHT22;32291;52.010;4.446;2022-07-01T02:47:53;13.30;99.90
47521;DHT22;32291;52.010;4.446;2022-07-01T02:48:56;13.30;99.90
47521;DHT22;32291;52.010;4.446;2022-07-01T02:49:59;13.30;99.90
47521;DHT22;32291;52.010;4.446;2022-07-01T02:51:02;14.30;99.90
47521;DHT22;32291;52.010;4.446;2022-07-01T02:52:08;13.30;99.90
47521;DHT22;32291;52.010;4.446;2022-07-01T02:53:16;13.30;99.90
47521;DHT22;32291;52.010;4.446;2022-07-01T02:54:23;13.30;99.90
47521;DHT22;32291;52.010;4.446;2022-07-01T02:55:25;13.30;99.90
47521;DHT22;32291;52.010;4.446;2022-07-01T02:56:30;13.30;99.90
47521;DHT22;32291;52.010;4.446;2022-07-01T02:57:34;13.20;99.90
47521;DHT22;32291;52.010;4.446;2022-07-01T02:58:43;13.00;99.90
47521;DHT22;32291;52.010;4.446;2022-07-01T02:59:49;13.20;99.90
47521;DHT22;32291;52.010;4.446;2022-07-01T03:00:53;13.20;99.90
47521;DHT22;32291;52.010;4.446;2022-07-01T03:01:56;13.30;99.90
47521;DHT22;32291;52.010;4.446;2022-07-01T03:03:03;13.20;99.90
47521;DHT22;32291;52.010;4.446;2022-07-01T03:04:17;13.20;99.90
47521;DHT22;32291;52.010;4.446;2022-07-01T03:05:21;13.30;99.90
47521;DHT22;32291;52.010;4.446;2022-07-01T03:06:26;13.20;99.90
47521;DHT22;32291;52.010;4.446;2022-07-01T03:07:33;13.20;99.90
47521;DHT22;32291;52.010;4.446;2022-07-01T03:08:39;13.10;99.90
47521;DHT22;32291;52.010;4.446;2022-07-01T03:09:44;13.20;99.90
47521;DHT22;32291;52.010;4.446;2022-07-01T03:10:47;13.20;99.90
47521;DHT22;32291;52.010;4.446;2022-07-01T03:11:51;13.10;99.90
47521;DHT22;32291;52.010;4.446;2022-07-01T03:12:54;13.10;99.90
47521;DHT22;32291;52.010;4.446;2022-07-01T03:14:02;13.20;99.90
47521;DHT22;32291;52.010;4.446;2022-07-01T03:15:13;13.20;99.90
47521;DHT22;32291;52.010;4.446;2022-07-01T03:16:19;13.10;99.90
47521;DHT22;32291;52.010;4.446;2022-07-01T03:17:32;13.20;99.90
47521;DHT22;32291;52.010;4.446;2022-07-01T03:18:53;14.10;99.90
47521;DHT22;32291;52.010;4.446;2022-07-01T03:19:58;13.20;99.90
47521;DHT22;32291;52.010;4.446;2022-07-01T03:21:06;13.20;99.90
47521;DHT22;32291;52.010;4.446;2022-07-01T03:22:15;13.20;99.90
47521;DHT22;32291;52.010;4.446;2022-07-01T03:23:20;13.10;99.90
47521;DHT22;32291;52.010;4.446;2022-07-01T03:24:26;13.10;99.90
47521;DHT22;32291;52.010;4.446;2022-07-01T03:25:28;13.10;99.90
47521;DHT22;32291;52.010;4.446;2022-07-01T03:26:30;12.50;99.90
47521;DHT22;32291;52.010;4.446;2022-07-01T03:27:39;13.10;99.90
47521;DHT22;32291;52.010;4.446;2022-07-01T03:28:47;12.50;99.90
47521;DHT22;32291;52.010;4.446;2022-07-01T03:29:52;13.10;99.90
47521;DHT22;32291;52.010;4.446;2022-07-01T03:30:56;13.10;99.90
47521;DHT22;32291;52.010;4.446;2022-07-01T03:33:57;12.80;99.90
47521;DHT22;32291;52.010;4.446;2022-07-01T03:35:05;13.00;99.90
47521;DHT22;32291;52.010;4.446;2022-07-01T03:36:28;13.00;99.90
47521;DHT22;32291;52.010;4.446;2022-07-01T03:37:31;13.00;99.90
47521;DHT22;32291;52.010;4.446;2022-07-01T03:38:37;13.00;99.90
47521;DHT22;32291;52.010;4.446;2022-07-01T03:39:40;11.90;99.90
47521;DHT22;32291;52.010;4.446;2022-07-01T03:40:44;13.00;99.90
47521;DHT22;32291;52.010;4.446;2022-07-01T03:41:49;13.00;99.90
47521;DHT22;32291;52.010;4.446;2022-07-01T03:42:56;13.00;99.90
47521;DHT22;32291;52.010;4.446;2022-07-01T03:44:01;13.00;99.90
47521;DHT22;32291;52.010;4.446;2022-07-01T03:45:10;13.10;99.90
47521;DHT22;32291;52.010;4.446;2022-07-01T03:46:14;13.10;99.90
47521;DHT22;32291;52.010;4.446;2022-07-01T03:47:17;12.90;99.90
47521;DHT22;32291;52.010;4.446;2022-07-01T03:48:19;13.00;99.90
47521;DHT22;32291;52.010;4.446;2022-07-01T03:49:23;13.10;99.90
47521;DHT22;32291;52.010;4.446;2022-07-01T03:50:33;13.10;99.90
47521;DHT22;32291;52.010;4.446;2022-07-01T03:51:35;13.00;99.90
47521;DHT22;32291;52.010;4.446;2022-07-01T03:52:38;13.10;99.90
47521;DHT22;32291;52.010;4.446;2022-07-01T03:53:50;13.20;99.90
47521;DHT22;32291;52.010;4.446;2022-07-01T03:55:11;13.20;99.90
47521;DHT22;32291;52.010;4.446;2022-07-01T03:56:15;13.20;99.90
47521;DHT22;32291;52.010;4.446;2022-07-01T03:57:18;13.20;99.90
47521;DHT22;32291;52.010;4.446;2022-07-01T03:58:26;13.20;99.90
47521;DHT22;32291;52.010;4.446;2022-07-01T03:59:32;13.20;99.90
47521;DHT22;32291;52.010;4.446;2022-07-01T04:00:42;13.30;99.90
47521;DHT22;32291;52.010;4.446;2022-07-01T04:01:51;13.20;99.90
47521;DHT22;32291;52.010;4.446;2022-07-01T04:02:58;13.30;99.90
47521;DHT22;32291;52.010;4.446;2022-07-01T04:04:02;12.80;99.90
47521;DHT22;32291;52.010;4.446;2022-07-01T04:05:05;13.30;99.90
47521;DHT22;32291;52.010;4.446;2022-07-01T04:06:07;13.30;99.90
47521;DHT22;32291;52.010;4.446;2022-07-01T04:07:11;13.50;99.90
47521;DHT22;32291;52.010;4.446;2022-07-01T04:08:14;13.30;99.90
47521;DHT22;32291;52.010;4.446;2022-07-01T04:09:18;13.30;99.90
47521;DHT22;32291;52.010;4.446;2022-07-01T04:10:21;13.30;99.90
47521;DHT22;32291;52.010;4.446;2022-07-01T04:11:25;13.30;99.90
47521;DHT22;32291;52.010;4.446;2022-07-01T04:12:27;13.30;99.90
47521;DHT22;32291;52.010;4.446;2022-07-01T04:13:36;13.30;99.90
47521;DHT22;32291;52.010;4.446;2022-07-01T04:14:42;13.30;99.90
47521;DHT22;32291;52.010;4.446;2022-07-01T04:15:47;13.00;99.90
47521;DHT22;32291;52.010;4.446;2022-07-01T04:16:55;13.50;99.90
47521;DHT22;32291;52.010;4.446;2022-07-01T04:17:58;13.30;99.90
47521;DHT22;32291;52.010;4.446;2022-07-01T04:19:00;13.40;99.90
47521;DHT22;32291;52.010;4.446;2022-07-01T04:20:05;13.40;99.90
47521;DHT22;32291;52.010;4.446;2022-07-01T04:21:08;13.40;99.90
47521;DHT22;32291;52.010;4.446;2022-07-01T04:22:29;13.40;99.90
47521;DHT22;32291;52.010;4.446;2022-07-01T04:23:34;13.50;99.90
47521;DHT22;32291;52.010;4.446;2022-07-01T04:24:37;13.50;99.90
47521;DHT22;32291;52.010;4.446;2022-07-01T04:25:40;13.50;99.90
47521;DHT22;32291;52.010;4.446;2022-07-01T04:26:45;13.40;99.90
47521;DHT22;32291;52.010;4.446;2022-07-01T04:27:49;13.50;99.90
47521;DHT22;32291;52.010;4.446;2022-07-01T04:28:53;13.40;99.90
47521;DHT22;32291;52.010;4.446;2022-07-01T04:29:56;13.50;99.90
47521;DHT22;32291;52.010;4.446;2022-07-01T04:30:59;13.50;99.90
47521;DHT22;32291;52.010;4.446;2022-07-01T04:32:02;13.50;99.90
47521;DHT22;32291;52.010;4.446;2022-07-01T04:33:05;13.60;99.90
47521;DHT22;32291;52.010;4.446;2022-07-01T04:34:08;13.70;99.90
47521;DHT22;32291;52.010;4.446;2022-07-01T04:35:12;13.70;99.90
47521;DHT22;32291;52.010;4.446;2022-07-01T04:36:20;13.70;99.90
47521;DHT22;32291;52.010;4.446;2022-07-01T04:37:29;13.80;99.90
47521;DHT22;32291;52.010;4.446;2022-07-01T04:38:37;13.20;99.90
47521;DHT22;32291;52.010;4.446;2022-07-01T04:39:46;13.60;99.90
47521;DHT22;32291;52.010;4.446;2022-07-01T04:41:25;13.30;99.90
47521;DHT22;32291;52.010;4.446;2022-07-01T04:43:09;13.70;99.90
47521;DHT22;32291;52.010;4.446;2022-07-01T04:44:17;13.70;99.90
47521;DHT22;32291;52.010;4.446;2022-07-01T04:45:20;13.70;99.90
47521;DHT22;32291;52.010;4.446;2022-07-01T04:46:26;13.70;99.90
47521;DHT22;32291;52.010;4.446;2022-07-01T04:47:29;13.80;99.90
47521;DHT22;32291;52.010;4.446;2022-07-01T04:48:37;13.70;99.90
47521;DHT22;32291;52.010;4.446;2022-07-01T04:49:45;13.00;99.90
47521;DHT22;32291;52.010;4.446;2022-07-01T04:50:47;13.80;99.90
47521;DHT22;32291;52.010;4.446;2022-07-01T04:51:53;13.70;99.90
47521;DHT22;32291;52.010;4.446;2022-07-01T04:53:00;13.80;99.90
47521;DHT22;32291;52.010;4.446;2022-07-01T04:54:06;13.80;99.90
47521;DHT22;32291;52.010;4.446;2022-07-01T04:55:27;13.70;99.90
47521;DHT22;32291;52.010;4.446;2022-07-01T04:56:37;13.70;99.90
47521;DHT22;32291;52.010;4.446;2022-07-01T04:57:40;13.70;99.90
47521;DHT22;32291;52.010;4.446;2022-07-01T04:58:51;13.70;99.90
47521;DHT22;32291;52.010;4.446;2022-07-01T04:59:54;14.00;99.90
47521;DHT22;32291;52.010;4.446;2022-07-01T05:01:09;13.70;99.90
47521;DHT22;32291;52.010;4.446;2022-07-01T05:02:18;12.60;99.90
47521;DHT22;32291;52.010;4.446;2022-07-01T05:03:25;13.80;99.90
47521;DHT22;32291;52.010;4.446;2022-07-01T05:04:48;13.80;99.90
47521;DHT22;32291;52.010;4.446;2022-07-01T05:06:14;13.60;99.90
47521;DHT22;32291;52.010;4.446;2022-07-01T05:07:50;13.80;99.90
47521;DHT22;32291;52.010;4.446;2022-07-01T05:09:10;13.80;99.90
47521;DHT22;32291;52.010;4.446;2022-07-01T05:10:25;13.80;99.90
47521;DHT22;32291;52.010;4.446;2022-07-01T05:11:55;13.80;99.90
47521;DHT22;32291;52.010;4.446;2022-07-01T05:12:58;13.80;99.90
47521;DHT22;32291;52.010;4.446;2022-07-01T05:14:00;13.80;99.90
47521;DHT22;32291;52.010;4.446;2022-07-01T05:15:03;13.80;99.90
47521;DHT22;32291;52.010;4.446;2022-07-01T05:16:10;13.80;99.90
47521;DHT22;32291;52.010;4.446;2022-07-01T05:17:24;13.90;99.90
47521;DHT22;32291;52.010;4.446;2022-07-01T05:18:46;13.90;99.90
47521;DHT22;32291;52.010;4.446;2022-07-01T05:20:07;13.90;99.90
47521;DHT22;32291;52.010;4.446;2022-07-01T05:21:28;13.90;99.90
47521;DHT22;32291;52.010;4.446;2022-07-01T05:22:53;14.00;99.90
47521;DHT22;32291;52.010;4.446;2022-07-01T05:24:16;14.00;99.90
47521;DHT22;32291;52.010;4.446;2022-07-01T05:25:20;14.10;99.90
47521;DHT22;32291;52.010;4.446;2022-07-01T05:26:23;14.10;99.90
47521;DHT22;32291;52.010;4.446;2022-07-01T05:27:27;14.10;99.90
47521;DHT22;32291;52.010;4.446;2022-07-01T05:28:29;14.20;99.90
47521;DHT22;32291;52.010;4.446;2022-07-01T05:29:32;14.20;99.90
47521;DHT22;32291;52.010;4.446;2022-07-01T05:30:34;14.20;99.90
47521;DHT22;32291;52.010;4.446;2022-07-01T05:31:37;14.30;99.90
47521;DHT22;32291;52.010;4.446;2022-07-01T05:32:39;14.30;99.90
47521;DHT22;32291;52.010;4.446;2022-07-01T05:33:42;14.30;99.90
47521;DHT22;32291;52.010;4.446;2022-07-01T05:34:45;14.30;99.90
47521;DHT22;32291;52.010;4.446;2022-07-01T05:35:48;14.20;99.90
47521;DHT22;32291;52.010;4.446;2022-07-01T05:36:52;14.30;99.90
47521;DHT22;32291;52.010;4.446;2022-07-01T05:38:00;14.30;99.90
47521;DHT22;32291;52.010;4.446;2022-07-01T05:39:03;14.40;99.90
47521;DHT22;32291;52.010;4.446;2022-07-01T05:40:06;14.40;99.90
47521;DHT22;32291;52.010;4.446;2022-07-01T05:41:09;14.40;99.90
47521;DHT22;32291;52.010;4.446;2022-07-01T05:42:12;14.40;99.90
47521;DHT22;32291;52.010;4.446;2022-07-01T05:43:15;14.50;99.90
47521;DHT22;32291;52.010;4.446;2022-07-01T05:44:17;14.50;99.90
47521;DHT22;32291;52.010;4.446;2022-07-01T05:45:19;14.50;99.90
47521;DHT22;32291;52.010;4.446;2022-07-01T05:46:22;14.60;99.90
47521;DHT22;32291;52.010;4.446;2022-07-01T05:47:25;14.70;99.90
47521;DHT22;32291;52.010;4.446;2022-07-01T05:48:28;14.70;99.90
47521;DHT22;32291;52.010;4.446;2022-07-01T05:49:30;14.70;99.90
47521;DHT22;32291;52.010;4.446;2022-07-01T05:50:32;14.80;99.90
47521;DHT22;32291;52.010;4.446;2022-07-01T05:51:35;14.80;99.90
47521;DHT22;32291;52.010;4.446;2022-07-01T05:52:39;14.80;99.90
47521;DHT22;32291;52.010;4.446;2022-07-01T05:53:41;14.80;99.90
47521;DHT22;32291;52.010;4.446;2022-07-01T05:54:45;14.70;99.90
47521;DHT22;32291;52.010;4.446;2022-07-01T05:55:48;14.70;99.90
47521;DHT22;32291;52.010;4.446;2022-07-01T05:56:52;14.70;99.90
47521;DHT22;32291;52.010;4.446;2022-07-01T05:57:57;14.70;99.90
47521;DHT22;32291;52.010;4.446;2022-07-01T05:59:01;14.70;99.90
47521;DHT22;32291;52.010;4.446;2022-07-01T06:00:04;14.60;99.90
47521;DHT22;32291;52.010;4.446;2022-07-01T06:01:07;14.60;99.90
47521;DHT22;32291;52.010;4.446;2022-07-01T06:02:09;14.60;99.90
47521;DHT22;32291;52.010;4.446;2022-07-01T06:03:14;14.60;99.90
47521;DHT22;32291;52.010;4.446;2022-07-01T06:04:18;14.60;99.90
47521;DHT22;32291;52.010;4.446;2022-07-01T06:05:21;14.60;99.90
47521;DHT22;32291;52.010;4.446;2022-07-01T06:06:26;14.60;99.90
47521;DHT22;32291;52.010;4.446;2022-07-01T06:07:28;14.60;99.90
47521;DHT22;32291;52.010;4.446;2022-07-01T06:08:32;14.60;99.90
47521;DHT22;32291;52.010;4.446;2022-07-01T06:09:39;14.60;99.90
47521;DHT22;32291;52.010;4.446;2022-07-01T06:10:41;14.60;99.90
47521;DHT22;32291;52.010;4.446;2022-07-01T06:11:44;14.60;99.90
47521;DHT22;32291;52.010;4.446;2022-07-01T06:12:47;14.60;99.90
47521;DHT22;32291;52.010;4.446;2022-07-01T06:13:49;14.60;99.90
47521;DHT22;32291;52.010;4.446;2022-07-01T06:14:52;14.60;99.90
47521;DHT22;32291;52.010;4.446;2022-07-01T06:15:56;14.70;99.90
47521;DHT22;32291;52.010;4.446;2022-07-01T06:16:59;14.60;99.90
47521;DHT22;32291;52.010;4.446;2022-07-01T06:18:02;14.60;99.90
47521;DHT22;32291;52.010;4.446;2022-07-01T06:19:04;14.30;99.90
47521;DHT22;32291;52.010;4.446;2022-07-01T06:20:08;14.60;99.90
47521;DHT22;32291;52.010;4.446;2022-07-01T06:21:18;14.70;99.90
47521;DHT22;32291;52.010;4.446;2022-07-01T06:22:22;14.70;99.90
47521;DHT22;32291;52.010;4.446;2022-07-01T06:23:25;14.70;99.90
47521;DHT22;32291;52.010;4.446;2022-07-01T06:24:28;14.80;99.90
47521;DHT22;32291;52.010;4.446;2022-07-01T06:25:31;14.80;99.90
47521;DHT22;32291;52.010;4.446;2022-07-01T06:26:34;14.80;99.90
47521;DHT22;32291;52.010;4.446;2022-07-01T06:27:40;14.80;99.90
47521;DHT22;32291;52.010;4.446;2022-07-01T06:28:45;14.90;99.90
47521;DHT22;32291;52.010;4.446;2022-07-01T06:29:47;14.90;99.90
47521;DHT22;32291;52.010;4.446;2022-07-01T06:30:50;14.90;99.90
47521;DHT22;32291;52.010;4.446;2022-07-01T06:31:56;15.00;99.90
47521;DHT22;32291;52.010;4.446;2022-07-01T06:32:59;15.00;99.90
47521;DHT22;32291;52.010;4.446;2022-07-01T06:34:01;15.10;99.90
47521;DHT22;32291;52.010;4.446;2022-07-01T06:35:04;15.10;99.90
47521;DHT22;32291;52.010;4.446;2022-07-01T06:36:10;15.10;99.90
47521;DHT22;32291;52.010;4.446;2022-07-01T06:37:15;15.50;99.90
47521;DHT22;32291;52.010;4.446;2022-07-01T06:38:18;15.20;99.90
47521;DHT22;32291;52.010;4.446;2022-07-01T06:39:21;15.40;99.90
47521;DHT22;32291;52.010;4.446;2022-07-01T06:40:24;15.50;99.90
47521;DHT22;32291;52.010;4.446;2022-07-01T06:41:27;15.60;99.90
47521;DHT22;32291;52.010;4.446;2022-07-01T06:42:30;15.70;99.90
47521;DHT22;32291;52.010;4.446;2022-07-01T06:43:35;15.90;99.90
47521;DHT22;32291;52.010;4.446;2022-07-01T06:44:38;16.10;99.90
47521;DHT22;32291;52.010;4.446;2022-07-01T06:45:41;16.20;99.90
47521;DHT22;32291;52.010;4.446;2022-07-01T06:46:52;16.30;99.90
47521;DHT22;32291;52.010;4.446;2022-07-01T06:47:55;16.30;99.90
47521;DHT22;32291;52.010;4.446;2022-07-01T06:49:00;16.30;99.90
47521;DHT22;32291;52.010;4.446;2022-07-01T06:50:03;16.30;99.90
47521;DHT22;32291;52.010;4.446;2022-07-01T06:51:07;16.40;99.90
47521;DHT22;32291;52.010;4.446;2022-07-01T06:52:10;16.50;99.90
47521;DHT22;32291;52.010;4.446;2022-07-01T06:53:13;16.50;99.90
47521;DHT22;32291;52.010;4.446;2022-07-01T06:54:16;16.50;99.90